Terminal Aerodrome Forecast
Issued by NWS Charleston, WV

Current Version | Previous Version | Text Only | Print | Product List | Glossary On
Versions: 1 2 3 4 5 6 7 8 9 10 11 12 13 14 15 16 17 18 19 20 21 22 23 24 25
000
FTUS41 KRLX 282100 AAD
TAFHTS
TAF AMD
KHTS 282120Z 2821/2918 22011G21KT 6SM -SHRA VCTS SCT035CB BKN050
      TEMPO 2822/2823 2SM SHRA BR BKN025
     FM282300 26008KT 5SM -SHRA BR OVC030
      TEMPO 2823/2901 4SM BR BKN020
     FM290200 27007KT 5SM BR BKN030
     FM290600 29005KT P6SM BKN050
     FM291200 25004KT P6SM SCT150=

USA.gov is the U.S. government's official web portal to all federal, state and local government web resources and services.